sensor_id;sensor_type;location;lat;lon;timestamp;pressure;altitude;pressure_sealevel;temperature;humidity
12801;BME280;6464;42.494;27.470;2023-05-08T05:26:05;100333.53;;;9.93;100.00
12801;BME280;6464;42.494;27.470;2023-05-08T05:28:34;100455.13;;;10.95;100.00
12801;BME280;6464;42.494;27.470;2023-05-08T05:31:04;100367.38;;;10.51;100.00
12801;BME280;6464;42.494;27.470;2023-05-08T05:33:40;100441.63;;;11.07;100.00
12801;BME280;6464;42.494;27.470;2023-05-08T05:36:13;100471.13;;;11.23;100.00
12801;BME280;6464;42.494;27.470;2023-05-08T05:38:41;100582.09;;;11.92;100.00
12801;BME280;6464;42.494;27.470;2023-05-08T05:41:18;100361.31;;;10.84;100.00
12801;BME280;6464;42.494;27.470;2023-05-08T05:43:53;100512.59;;;11.54;100.00
12801;BME280;6464;42.494;27.470;2023-05-08T05:46:23;100444.19;;;11.45;100.00
12801;BME280;6464;42.494;27.470;2023-05-08T05:48:56;100529.94;;;11.98;100.00
12801;BME280;6464;42.494;27.470;2023-05-08T05:51:25;100467.38;;;11.66;100.00
12801;BME280;6464;42.494;27.470;2023-05-08T05:53:56;100627.69;;;12.96;100.00
12801;BME280;6464;42.494;27.470;2023-05-08T05:56:31;100602.00;;;12.38;100.00
12801;BME280;6464;42.494;27.470;2023-05-08T05:59:00;100703.75;;;13.19;100.00
12801;BME280;6464;42.494;27.470;2023-05-08T06:01:29;100578.47;;;12.59;100.00
12801;BME280;6464;42.494;27.470;2023-05-08T06:03:56;100657.25;;;13.10;100.00
12801;BME280;6464;42.494;27.470;2023-05-08T06:06:26;100497.00;;;12.41;100.00
12801;BME280;6464;42.494;27.470;2023-05-08T06:09:08;100715.41;;;14.01;100.00
12801;BME280;6464;42.494;27.470;2023-05-08T06:11:40;100638.09;;;13.60;100.00
12801;BME280;6464;42.494;27.470;2023-05-08T06:14:10;100552.50;;;13.02;100.00
12801;BME280;6464;42.494;27.470;2023-05-08T06:16:41;100639.34;;;13.48;100.00
12801;BME280;6464;42.494;27.470;2023-05-08T06:19:19;100692.69;;;13.66;100.00
12801;BME280;6464;42.494;27.470;2023-05-08T06:24:54;100651.97;;;13.40;100.00
12801;BME280;6464;42.494;27.470;2023-05-08T06:27:28;100620.69;;;13.78;100.00
12801;BME280;6464;42.494;27.470;2023-05-08T06:30:09;100561.78;;;13.43;100.00
12801;BME280;6464;42.494;27.470;2023-05-08T06:32:44;100766.59;;;14.57;100.00
12801;BME280;6464;42.494;27.470;2023-05-08T06:35:20;100529.31;;;13.65;100.00
12801;BME280;6464;42.494;27.470;2023-05-08T06:38:02;100696.81;;;15.04;100.00
12801;BME280;6464;42.494;27.470;2023-05-08T06:40:31;100649.72;;;14.84;100.00
12801;BME280;6464;42.494;27.470;2023-05-08T06:43:05;100740.84;;;15.56;100.00
12801;BME280;6464;42.494;27.470;2023-05-08T06:45:35;100644.66;;;15.01;100.00
12801;BME280;6464;42.494;27.470;2023-05-08T06:48:13;100529.44;;;14.35;100.00
12801;BME280;6464;42.494;27.470;2023-05-08T06:50:43;100721.16;;;14.91;100.00
12801;BME280;6464;42.494;27.470;2023-05-08T06:56:02;100640.84;;;14.61;100.00
12801;BME280;6464;42.494;27.470;2023-05-08T06:58:34;100685.06;;;14.86;100.00
12801;BME280;6464;42.494;27.470;2023-05-08T07:01:03;100608.81;;;14.41;100.00
12801;BME280;6464;42.494;27.470;2023-05-08T07:03:33;100811.50;;;15.63;100.00
12801;BME280;6464;42.494;27.470;2023-05-08T07:06:02;100726.41;;;15.16;100.00
12801;BME280;6464;42.494;27.470;2023-05-08T07:08:29;100615.03;;;14.40;100.00
12801;BME280;6464;42.494;27.470;2023-05-08T07:10:57;100719.72;;;15.30;100.00
12801;BME280;6464;42.494;27.470;2023-05-08T07:13:27;100769.72;;;15.67;100.00
12801;BME280;6464;42.494;27.470;2023-05-08T07:15:59;100763.25;;;15.02;100.00
12801;BME280;6464;42.494;27.470;2023-05-08T07:18:33;100748.47;;;14.95;100.00
12801;BME280;6464;42.494;27.470;2023-05-08T07:21:20;100725.69;;;14.88;100.00
12801;BME280;6464;42.494;27.470;2023-05-08T07:23:48;100758.09;;;14.98;100.00
12801;BME280;6464;42.494;27.470;2023-05-08T07:26:18;100700.16;;;14.84;100.00
12801;BME280;6464;42.494;27.470;2023-05-08T07:28:53;100703.09;;;15.01;100.00
12801;BME280;6464;42.494;27.470;2023-05-08T07:31:27;100788.59;;;15.83;100.00
12801;BME280;6464;42.494;27.470;2023-05-08T07:33:54;100827.22;;;16.37;100.00
12801;BME280;6464;42.494;27.470;2023-05-08T07:36:24;100703.19;;;15.68;100.00
12801;BME280;6464;42.494;27.470;2023-05-08T07:38:52;100767.13;;;16.09;100.00
12801;BME280;6464;42.494;27.470;2023-05-08T07:41:19;100717.72;;;15.82;100.00
12801;BME280;6464;42.494;27.470;2023-05-08T07:46:22;100687.53;;;15.83;100.00
12801;BME280;6464;42.494;27.470;2023-05-08T07:49:03;100870.84;;;16.78;100.00
12801;BME280;6464;42.494;27.470;2023-05-08T07:51:31;100725.09;;;15.97;100.00
12801;BME280;6464;42.494;27.470;2023-05-08T07:53:58;100793.56;;;16.36;100.00
12801;BME280;6464;42.494;27.470;2023-05-08T08:01:35;100760.16;;;16.07;100.00
12801;BME280;6464;42.494;27.470;2023-05-08T09:37:39;101836.06;;;25.28;100.00
12801;BME280;6464;42.494;27.470;2023-05-08T09:40:14;102026.25;;;26.39;100.00
12801;BME280;6464;42.494;27.470;2023-05-08T09:42:41;102043.63;;;27.32;100.00
12801;BME280;6464;42.494;27.470;2023-05-08T09:45:09;102089.16;;;27.40;100.00
12801;BME280;6464;42.494;27.470;2023-05-08T09:47:36;102102.63;;;27.54;100.00
12801;BME280;6464;42.494;27.470;2023-05-08T09:50:05;102074.47;;;27.70;100.00
12801;BME280;6464;42.494;27.470;2023-05-08T09:52:33;102100.56;;;27.98;100.00
12801;BME280;6464;42.494;27.470;2023-05-08T09:55:03;102117.28;;;28.68;100.00
12801;BME280;6464;42.494;27.470;2023-05-08T09:57:32;102082.19;;;27.23;100.00
12801;BME280;6464;42.494;27.470;2023-05-08T10:00:04;102066.72;;;28.03;100.00
12801;BME280;6464;42.494;27.470;2023-05-08T10:02:32;102109.19;;;28.79;100.00
12801;BME280;6464;42.494;27.470;2023-05-08T10:04:59;102103.56;;;28.69;100.00
12801;BME280;6464;42.494;27.470;2023-05-08T10:07:27;102097.41;;;28.04;100.00
12801;BME280;6464;42.494;27.470;2023-05-08T10:09:59;102117.28;;;28.68;100.00
12801;BME280;6464;42.494;27.470;2023-05-08T10:12:29;102067.03;;;28.24;100.00
12801;BME280;6464;42.494;27.470;2023-05-08T10:14:56;102141.69;;;29.41;100.00
12801;BME280;6464;42.494;27.470;2023-05-08T10:17:26;102120.88;;;29.05;100.00
12801;BME280;6464;42.494;27.470;2023-05-08T10:19:58;101993.41;;;27.14;100.00
12801;BME280;6464;42.494;27.470;2023-05-08T10:22:27;101991.63;;;27.27;100.00
12801;BME280;6464;42.494;27.470;2023-05-08T10:24:56;102125.47;;;28.92;100.00
12801;BME280;6464;42.494;27.470;2023-05-08T10:27:32;102142.94;;;29.61;100.00
12801;BME280;6464;42.494;27.470;2023-05-08T10:30:01;102155.00;;;30.39;100.00
12801;BME280;6464;42.494;27.470;2023-05-08T10:32:36;102117.72;;;29.35;100.00
12801;BME280;6464;42.494;27.470;2023-05-08T10:35:08;102135.06;;;29.22;100.00
12801;BME280;6464;42.494;27.470;2023-05-08T10:37:36;102140.53;;;29.81;100.00
12801;BME280;6464;42.494;27.470;2023-05-08T10:40:04;102145.50;;;29.39;100.00
12801;BME280;6464;42.494;27.470;2023-05-08T10:42:33;102104.00;;;29.37;100.00
12801;BME280;6464;42.494;27.470;2023-05-08T10:45:03;102108.03;;;28.32;100.00
12801;BME280;6464;42.494;27.470;2023-05-08T10:47:46;102055.38;;;26.22;100.00
12801;BME280;6464;42.494;27.470;2023-05-08T10:50:35;102046.31;;;26.78;100.00
12801;BME280;6464;42.494;27.470;2023-05-08T10:53:07;102078.88;;;27.98;100.00
12801;BME280;6464;42.494;27.470;2023-05-08T10:55:37;102052.28;;;27.77;100.00
12801;BME280;6464;42.494;27.470;2023-05-08T10:58:12;102071.09;;;27.13;100.00
12801;BME280;6464;42.494;27.470;2023-05-08T11:01:09;102104.22;;;28.73;100.00
12801;BME280;6464;42.494;27.470;2023-05-08T11:03:38;102109.59;;;28.86;100.00
12801;BME280;6464;42.494;27.470;2023-05-08T11:06:06;102101.97;;;29.04;100.00
12801;BME280;6464;42.494;27.470;2023-05-08T11:08:42;102126.03;;;28.72;100.00
12801;BME280;6464;42.494;27.470;2023-05-08T11:11:15;102129.28;;;29.26;100.00
12801;BME280;6464;42.494;27.470;2023-05-08T11:13:48;102130.72;;;29.78;100.00
12801;BME280;6464;42.494;27.470;2023-05-08T11:16:16;102151.94;;;30.66;100.00
12801;BME280;6464;42.494;27.470;2023-05-08T11:19:15;102172.34;;;31.60;100.00
12801;BME280;6464;42.494;27.470;2023-05-08T11:22:19;102132.47;;;30.14;100.00
12801;BME280;6464;42.494;27.470;2023-05-08T11:24:51;102135.22;;;30.59;100.00
12801;BME280;6464;42.494;27.470;2023-05-08T11:27:30;102128.41;;;30.65;100.00
12801;BME280;6464;42.494;27.470;2023-05-08T11:30:21;102133.84;;;30.65;100.00
12801;BME280;6464;42.494;27.470;2023-05-08T11:33:10;102124.34;;;31.36;100.00
12801;BME280;6464;42.494;27.470;2023-05-08T11:35:47;102145.88;;;31.83;100.00
12801;BME280;6464;42.494;27.470;2023-05-08T11:38:16;102135.09;;;31.38;100.00
12801;BME280;6464;42.494;27.470;2023-05-08T11:40:47;102114.56;;;30.90;100.00
12801;BME280;6464;42.494;27.470;2023-05-08T11:43:37;102142.47;;;31.15;100.00
12801;BME280;6464;42.494;27.470;2023-05-08T11:46:15;102097.50;;;31.20;100.00
12801;BME280;6464;42.494;27.470;2023-05-08T11:48:42;102118.25;;;31.01;100.00
12801;BME280;6464;42.494;27.470;2023-05-08T11:51:10;102086.34;;;30.80;100.00
12801;BME280;6464;42.494;27.470;2023-05-08T11:53:38;102085.59;;;30.33;100.00
12801;BME280;6464;42.494;27.470;2023-05-08T11:56:05;102114.19;;;31.38;100.00
12801;BME280;6464;42.494;27.470;2023-05-08T11:58:33;102133.22;;;32.33;100.00
12801;BME280;6464;42.494;27.470;2023-05-08T12:01:01;102145.06;;;33.14;100.00
12801;BME280;6464;42.494;27.470;2023-05-08T12:03:29;102147.66;;;33.16;100.00
12801;BME280;6464;42.494;27.470;2023-05-08T12:05:57;102130.94;;;32.99;100.00
12801;BME280;6464;42.494;27.470;2023-05-08T12:08:25;102062.53;;;29.92;100.00
12801;BME280;6464;42.494;27.470;2023-05-08T12:10:53;102054.19;;;30.18;100.00
12801;BME280;6464;42.494;27.470;2023-05-08T12:13:22;102023.78;;;28.96;100.00
12801;BME280;6464;42.494;27.470;2023-05-08T12:15:51;101996.63;;;29.31;100.00
12801;BME280;6464;42.494;27.470;2023-05-08T12:18:19;102011.81;;;28.25;100.00
12801;BME280;6464;42.494;27.470;2023-05-08T12:20:51;101979.75;;;27.81;100.00
12801;BME280;6464;42.494;27.470;2023-05-08T12:23:18;101977.34;;;26.71;100.00
12801;BME280;6464;42.494;27.470;2023-05-08T12:25:46;101937.69;;;26.02;100.00
12801;BME280;6464;42.494;27.470;2023-05-08T12:28:12;101942.66;;;26.22;100.00
12801;BME280;6464;42.494;27.470;2023-05-08T12:30:40;101951.75;;;25.64;100.00
12801;BME280;6464;42.494;27.470;2023-05-08T12:33:07;101916.13;;;25.72;100.00
12801;BME280;6464;42.494;27.470;2023-05-08T12:35:35;101922.63;;;25.83;100.00
12801;BME280;6464;42.494;27.470;2023-05-08T12:38:06;101961.28;;;26.68;100.00
12801;BME280;6464;42.494;27.470;2023-05-08T12:40:38;101991.31;;;27.45;100.00
12801;BME280;6464;42.494;27.470;2023-05-08T12:43:07;101992.72;;;27.37;100.00
12801;BME280;6464;42.494;27.470;2023-05-08T12:45:36;101993.56;;;27.51;100.00
12801;BME280;6464;42.494;27.470;2023-05-08T12:48:05;102032.84;;;28.22;100.00
12801;BME280;6464;42.494;27.470;2023-05-08T12:50:33;101991.09;;;27.48;100.00
12801;BME280;6464;42.494;27.470;2023-05-08T12:53:01;102022.88;;;28.22;100.00
12801;BME280;6464;42.494;27.470;2023-05-08T12:55:32;102015.63;;;28.10;100.00
12801;BME280;6464;42.494;27.470;2023-05-08T12:58:01;102065.00;;;29.95;100.00
12801;BME280;6464;42.494;27.470;2023-05-08T13:00:38;102054.91;;;30.54;100.00
12801;BME280;6464;42.494;27.470;2023-05-08T13:03:07;102070.72;;;30.04;100.00
12801;BME280;6464;42.494;27.470;2023-05-08T13:05:35;102075.31;;;30.48;100.00
12801;BME280;6464;42.494;27.470;2023-05-08T13:08:03;102061.03;;;29.77;100.00
12801;BME280;6464;42.494;27.470;2023-05-08T13:10:49;102082.72;;;30.68;100.00
12801;BME280;6464;42.494;27.470;2023-05-08T13:13:18;102075.19;;;30.16;100.00
12801;BME280;6464;42.494;27.470;2023-05-08T13:15:46;102079.03;;;30.58;100.00
12801;BME280;6464;42.494;27.470;2023-05-08T13:18:13;102059.31;;;29.87;100.00
12801;BME280;6464;42.494;27.470;2023-05-08T13:20:40;102045.00;;;29.50;100.00
12801;BME280;6464;42.494;27.470;2023-05-08T13:23:08;102033.81;;;28.46;100.00
12801;BME280;6464;42.494;27.470;2023-05-08T13:25:35;101998.50;;;28.59;100.00
12801;BME280;6464;42.494;27.470;2023-05-08T13:28:04;101981.66;;;27.53;100.00
12801;BME280;6464;42.494;27.470;2023-05-08T13:30:32;101984.94;;;28.09;100.00
12801;BME280;6464;42.494;27.470;2023-05-08T13:32:59;102039.69;;;29.25;100.00
12801;BME280;6464;42.494;27.470;2023-05-08T13:35:27;102040.94;;;29.21;100.00
12801;BME280;6464;42.494;27.470;2023-05-08T13:37:54;102036.50;;;28.33;100.00
12801;BME280;6464;42.494;27.470;2023-05-08T13:40:21;102022.00;;;28.09;100.00
12801;BME280;6464;42.494;27.470;2023-05-08T13:42:48;101948.34;;;25.46;100.00
12801;BME280;6464;42.494;27.470;2023-05-08T13:45:17;101846.34;;;24.31;100.00
12801;BME280;6464;42.494;27.470;2023-05-08T13:47:44;101874.28;;;25.06;100.00
12801;BME280;6464;42.494;27.470;2023-05-08T13:50:13;101876.66;;;25.41;100.00
12801;BME280;6464;42.494;27.470;2023-05-08T13:52:41;101875.09;;;25.08;100.00
12801;BME280;6464;42.494;27.470;2023-05-08T13:55:10;101897.72;;;25.50;100.00
12801;BME280;6464;42.494;27.470;2023-05-08T13:57:37;101914.09;;;25.47;100.00
12801;BME280;6464;42.494;27.470;2023-05-08T14:00:05;101903.53;;;25.13;100.00
12801;BME280;6464;42.494;27.470;2023-05-08T14:02:34;101885.38;;;24.71;100.00
12801;BME280;6464;42.494;27.470;2023-05-08T14:05:02;101805.09;;;23.83;100.00
12801;BME280;6464;42.494;27.470;2023-05-08T14:07:29;101800.81;;;23.63;100.00
12801;BME280;6464;42.494;27.470;2023-05-08T14:09:55;101816.97;;;23.63;100.00
12801;BME280;6464;42.494;27.470;2023-05-08T14:12:24;101708.09;;;22.87;100.00
12801;BME280;6464;42.494;27.470;2023-05-08T14:14:51;101828.75;;;23.45;100.00
12801;BME280;6464;42.494;27.470;2023-05-08T14:17:29;101703.16;;;22.11;100.00
12801;BME280;6464;42.494;27.470;2023-05-08T14:20:04;101638.06;;;21.52;100.00
12801;BME280;6464;42.494;27.470;2023-05-08T14:22:48;101684.47;;;21.36;100.00
12801;BME280;6464;42.494;27.470;2023-05-08T14:25:48;101496.13;;;20.17;100.00
12801;BME280;6464;42.494;27.470;2023-05-08T14:29:06;101308.50;;;19.06;100.00
12801;BME280;6464;42.494;27.470;2023-05-08T14:46:19;100443.38;;;18.08;100.00
12801;BME280;6464;42.494;27.470;2023-05-08T14:48:48;100489.09;;;18.51;100.00
12801;BME280;6464;42.494;27.470;2023-05-08T14:51:33;100551.38;;;18.85;100.00
12801;BME280;6464;42.494;27.470;2023-05-08T14:57:01;100474.53;;;17.75;100.00
12801;BME280;6464;42.494;27.470;2023-05-08T15:02:54;100526.78;;;18.29;100.00
12801;BME280;6464;42.494;27.470;2023-05-08T15:05:37;100430.81;;;17.60;100.00
12801;BME280;6464;42.494;27.470;2023-05-08T15:14:03;100356.91;;;17.11;100.00
12801;BME280;6464;42.494;27.470;2023-05-08T16:21:49;100427.69;;;15.03;100.00
12801;BME280;6464;42.494;27.470;2023-05-08T16:54:57;100301.53;;;14.29;100.00
12801;BME280;6464;42.494;27.470;2023-05-08T17:10:42;100293.28;;;14.14;100.00
12801;BME280;6464;42.494;27.470;2023-05-08T17:13:12;100356.78;;;14.41;100.00
12801;BME280;6464;42.494;27.470;2023-05-08T17:16:03;100304.69;;;14.17;100.00
12801;BME280;6464;42.494;27.470;2023-05-08T17:24:13;100420.03;;;14.74;100.00
12801;BME280;6464;42.494;27.470;2023-05-08T18:15:28;100428.50;;;14.38;100.00
12801;BME280;6464;42.494;27.470;2023-05-08T18:42:59;100538.44;;;15.01;100.00
12801;BME280;6464;42.494;27.470;2023-05-08T19:20:41;100420.41;;;13.96;100.00
12801;BME280;6464;42.494;27.470;2023-05-08T19:26:12;100393.22;;;13.66;100.00
12801;BME280;6464;42.494;27.470;2023-05-08T19:28:41;100324.41;;;13.39;100.00
12801;BME280;6464;42.494;27.470;2023-05-08T19:31:10;100378.13;;;13.44;100.00
12801;BME280;6464;42.494;27.470;2023-05-08T19:36:46;100473.75;;;13.86;100.00
12801;BME280;6464;42.494;27.470;2023-05-08T19:39:18;100452.69;;;13.82;100.00
12801;BME280;6464;42.494;27.470;2023-05-08T19:42:07;100490.97;;;14.23;100.00
12801;BME280;6464;42.494;27.470;2023-05-08T19:44:40;100491.91;;;13.97;100.00
12801;BME280;6464;42.494;27.470;2023-05-08T19:47:07;100521.34;;;14.14;100.00
12801;BME280;6464;42.494;27.470;2023-05-08T19:49:49;100477.41;;;13.82;100.00
12801;BME280;6464;42.494;27.470;2023-05-08T19:52:33;100399.25;;;13.46;100.00
12801;BME280;6464;42.494;27.470;2023-05-08T20:06:34;100391.69;;;13.60;100.00
12801;BME280;6464;42.494;27.470;2023-05-08T21:39:05;99958.91;;;12.28;100.00
12801;BME280;6464;42.494;27.470;2023-05-08T21:47:28;100027.72;;;12.26;100.00
12801;BME280;6464;42.494;27.470;2023-05-08T21:50:23;100176.28;;;12.86;100.00
12801;BME280;6464;42.494;27.470;2023-05-08T22:28:09;100146.88;;;12.70;100.00
12801;BME280;6464;42.494;27.470;2023-05-08T22:31:04;99994.25;;;12.02;100.00
12801;BME280;6464;42.494;27.470;2023-05-08T22:33:59;100084.00;;;12.30;100.00
12801;BME280;6464;42.494;27.470;2023-05-08T22:40:20;100168.34;;;13.11;100.00
12801;BME280;6464;42.494;27.470;2023-05-08T22:43:12;100013.38;;;12.33;100.00
12801;BME280;6464;42.494;27.470;2023-05-08T22:45:48;99978.00;;;12.13;100.00
12801;BME280;6464;42.494;27.470;2023-05-08T22:48:26;100052.88;;;12.38;100.00
12801;BME280;6464;42.494;27.470;2023-05-08T22:51:23;100181.16;;;12.98;100.00
12801;BME280;6464;42.494;27.470;2023-05-08T22:53:54;100077.09;;;12.26;100.00
12801;BME280;6464;42.494;27.470;2023-05-08T22:56:29;100139.06;;;12.91;100.00
12801;BME280;6464;42.494;27.470;2023-05-08T23:01:35;100151.97;;;12.51;100.00
12801;BME280;6464;42.494;27.470;2023-05-08T23:04:06;100264.78;;;13.52;100.00
12801;BME280;6464;42.494;27.470;2023-05-08T23:06:51;100239.06;;;12.82;100.00
12801;BME280;6464;42.494;27.470;2023-05-08T23:12:16;100188.69;;;12.60;100.00
12801;BME280;6464;42.494;27.470;2023-05-08T23:17:52;100287.56;;;13.08;100.00
12801;BME280;6464;42.494;27.470;2023-05-08T23:20:35;100398.00;;;13.31;100.00
12801;BME280;6464;42.494;27.470;2023-05-08T23:23:03;100344.50;;;13.20;100.00
12801;BME280;6464;42.494;27.470;2023-05-08T23:25:36;100285.22;;;12.74;100.00
12801;BME280;6464;42.494;27.470;2023-05-08T23:28:37;100253.44;;;12.22;100.00
12801;BME280;6464;42.494;27.470;2023-05-08T23:31:21;100229.00;;;12.16;100.00
12801;BME280;6464;42.494;27.470;2023-05-08T23:33:59;100261.38;;;12.22;100.00
12801;BME280;6464;42.494;27.470;2023-05-08T23:39:22;100463.78;;;13.43;100.00
12801;BME280;6464;42.494;27.470;2023-05-08T23:41:57;100255.28;;;12.20;100.00
12801;BME280;6464;42.494;27.470;2023-05-08T23:45:21;100286.44;;;12.11;100.00
12801;BME280;6464;42.494;27.470;2023-05-08T23:48:05;100279.13;;;12.19;100.00
12801;BME280;6464;42.494;27.470;2023-05-08T23:51:03;100374.97;;;12.53;100.00
12801;BME280;6464;42.494;27.470;2023-05-08T23:53:31;100381.34;;;12.48;100.00
12801;BME280;6464;42.494;27.470;2023-05-08T23:56:01;100301.66;;;12.02;100.00
12801;BME280;6464;42.494;27.470;2023-05-08T23:58:37;100274.78;;;11.88;100.00
